createdAt,value
2018-03-22T00:00:22.655Z,2
2018-03-22T00:01:32.790Z,1.94
2018-03-22T00:02:42.658Z,1.9
2018-03-22T00:03:52.783Z,1.94
2018-03-22T00:05:02.494Z,1.92
2018-03-22T00:06:12.363Z,1.92
2018-03-22T00:07:22.087Z,1.98
2018-03-22T00:08:32.218Z,2.06
2018-03-22T00:09:42.389Z,2.06
2018-03-22T00:10:52.310Z,2.01
2018-03-22T00:12:02.448Z,2.01
2018-03-22T00:13:12.576Z,2.03
2018-03-22T00:14:23.435Z,2.08
2018-03-22T00:15:34.271Z,2.05
2018-03-22T00:16:44.139Z,2.03
2018-03-22T00:17:54.116Z,2.06
2018-03-22T00:19:04.285Z,2.08
2018-03-22T00:20:14.447Z,2.05
2018-03-22T00:21:23.984Z,2.06
2018-03-22T00:22:33.551Z,1.92
2018-03-22T00:23:43.731Z,2.06
2018-03-22T00:24:53.486Z,1.95
2018-03-22T00:26:03.620Z,1.92
2018-03-22T00:27:14.754Z,1.85
2018-03-22T00:28:24.635Z,1.95
2018-03-22T00:29:34.798Z,1.88
2018-03-22T00:30:44.922Z,1.8
2018-03-22T00:31:54.424Z,1.85
2018-03-22T00:33:04.415Z,1.94
2018-03-22T00:34:14.293Z,1.92
2018-03-22T00:35:24.058Z,1.91
2018-03-22T00:36:33.658Z,1.9
2018-03-22T00:37:43.886Z,1.88
2018-03-22T00:38:53.745Z,1.88
2018-03-22T00:40:03.714Z,1.91
2018-03-22T00:41:13.911Z,1.84
2018-03-22T00:42:24.058Z,1.82
2018-03-22T00:43:34.069Z,1.88
2018-03-22T00:44:44.273Z,1.87
2018-03-22T00:45:54.459Z,1.77
2018-03-22T00:47:04.610Z,1.7
2018-03-22T00:48:14.822Z,1.72
2018-03-22T00:49:24.417Z,1.72
2018-03-22T00:50:34.173Z,1.73
2018-03-22T00:51:45.024Z,1.72
2018-03-22T00:52:54.912Z,1.67
2018-03-22T00:54:05.086Z,1.51
2018-03-22T00:55:14.979Z,1.57
2018-03-22T00:56:25.135Z,1.51
2018-03-22T00:57:35.269Z,1.54
2018-03-22T00:58:45.389Z,1.57
2018-03-22T00:59:55.248Z,1.55
2018-03-22T01:01:05.204Z,1.54
2018-03-22T01:02:14.734Z,1.47
2018-03-22T01:03:24.879Z,1.5
2018-03-22T01:04:34.355Z,1.57
2018-03-22T01:05:44.491Z,1.53
2018-03-22T01:06:54.174Z,1.5
2018-03-22T01:08:04.307Z,1.53
2018-03-22T01:09:14.002Z,1.5
2018-03-22T01:10:23.577Z,1.55
2018-03-22T01:11:33.762Z,1.51
2018-03-22T01:12:43.889Z,1.48
2018-03-22T01:13:53.863Z,1.42
2018-03-22T01:15:03.466Z,1.4
2018-03-22T01:16:14.331Z,1.43
2018-03-22T01:17:24.547Z,1.4
2018-03-22T01:18:34.031Z,1.29
2018-03-22T01:19:44.135Z,1.35
2018-03-22T01:20:54.052Z,1.33
2018-03-22T01:22:04.180Z,1.33
2018-03-22T01:23:14.027Z,1.36
2018-03-22T01:24:24.118Z,1.3
2018-03-22T01:25:34.104Z,1.35
2018-03-22T01:26:43.974Z,1.29
2018-03-22T01:27:54.111Z,1.36
2018-03-22T01:29:03.960Z,1.35
2018-03-22T01:30:14.128Z,1.28
2018-03-22T01:31:24.001Z,1.32
2018-03-22T01:32:34.142Z,1.36
2018-03-22T01:33:44.290Z,1.25
2018-03-22T01:34:54.158Z,1.24
2018-03-22T01:36:03.792Z,1.32
2018-03-22T01:37:13.867Z,1.39
2018-03-22T01:38:24.960Z,1.42
2018-03-22T01:39:34.478Z,1.4
2018-03-22T01:40:44.379Z,1.47
2018-03-22T01:41:54.492Z,1.46
2018-03-22T01:43:04.398Z,1.5
2018-03-22T01:44:14.499Z,1.5
2018-03-22T01:45:24.599Z,1.5
2018-03-22T01:46:34.711Z,1.43
2018-03-22T01:47:44.904Z,1.46
2018-03-22T01:48:54.858Z,1.46
2018-03-22T01:50:04.932Z,1.51
2018-03-22T01:51:14.688Z,1.51
2018-03-22T01:52:24.573Z,1.54
2018-03-22T01:53:34.466Z,1.54
2018-03-22T01:54:44.711Z,1.54
2018-03-22T01:55:54.972Z,1.53
2018-03-22T01:57:04.845Z,1.42
2018-03-22T01:58:15.030Z,1.47
2018-03-22T01:59:25.136Z,1.48
2018-03-22T02:00:34.975Z,1.43
2018-03-22T02:01:45.303Z,1.5
2018-03-22T02:02:55.442Z,1.46
2018-03-22T02:04:05.572Z,1.38
2018-03-22T02:05:15.865Z,1.43
2018-03-22T02:06:26.087Z,1.39
2018-03-22T02:07:36.248Z,1.4
2018-03-22T02:08:46.520Z,1.39
2018-03-22T02:09:56.713Z,1.39
2018-03-22T02:11:06.981Z,1.4
2018-03-22T02:12:16.481Z,1.42
2018-03-22T02:13:26.621Z,1.43
2018-03-22T02:14:36.747Z,1.48
2018-03-22T02:15:46.858Z,1.47
2018-03-22T02:16:57.080Z,1.48
2018-03-22T02:18:06.602Z,1.48
2018-03-22T02:19:16.748Z,1.43
2018-03-22T02:20:26.855Z,1.43
2018-03-22T02:21:37.015Z,1.42
2018-03-22T02:22:46.367Z,1.36
2018-03-22T02:23:56.186Z,1.35
2018-03-22T02:25:06.011Z,1.22
2018-03-22T02:26:15.535Z,1.21
2018-03-22T02:27:25.681Z,1.22
2018-03-22T02:28:35.584Z,1.25
2018-03-22T02:29:45.712Z,1.2
2018-03-22T02:30:55.561Z,1.22
2018-03-22T02:32:05.150Z,1.24
2018-03-22T02:33:15.306Z,1.2
2018-03-22T02:34:25.466Z,1.24
2018-03-22T02:35:35.144Z,1.28
2018-03-22T02:36:45.437Z,1.22
2018-03-22T02:37:55.400Z,1.21
2018-03-22T02:39:05.586Z,1.35
2018-03-22T02:40:15.437Z,1.28
2018-03-22T02:41:25.305Z,1.29
2018-03-22T02:42:35.581Z,1.35
2018-03-22T02:43:44.849Z,1.35
2018-03-22T02:44:54.372Z,1.35
2018-03-22T02:46:03.976Z,1.33
2018-03-22T02:47:13.842Z,1.3
2018-03-22T02:48:23.626Z,1.33
2018-03-22T02:49:33.119Z,1.32
2018-03-22T02:50:43.311Z,1.33
2018-03-22T02:51:53.471Z,1.3
2018-03-22T02:53:03.660Z,1.33
2018-03-22T02:54:13.833Z,1.33
2018-03-22T02:55:24.201Z,1.3
2018-03-22T02:56:34.100Z,1.35
2018-03-22T02:57:44.040Z,1.48
2018-03-22T02:58:53.435Z,1.47
2018-03-22T03:00:03.202Z,1.39
2018-03-22T03:01:13.341Z,1.47
2018-03-22T03:02:23.562Z,1.43
2018-03-22T03:03:33.723Z,1.46
2018-03-22T03:04:43.515Z,1.48
2018-03-22T03:05:53.640Z,1.43
2018-03-22T03:07:02.978Z,1.5
2018-03-22T03:08:13.215Z,1.43
2018-03-22T03:09:23.449Z,1.47
2018-03-22T03:10:33.617Z,1.4
2018-03-22T03:11:43.757Z,1.39
2018-03-22T03:12:53.930Z,1.43
2018-03-22T03:14:04.039Z,1.46
2018-03-22T03:15:13.939Z,1.47
2018-03-22T03:16:23.795Z,1.4
2018-03-22T03:17:33.547Z,1.48
2018-03-22T03:18:43.040Z,1.58
2018-03-22T03:19:52.949Z,1.42
2018-03-22T03:21:02.774Z,1.47
2018-03-22T03:22:12.961Z,1.55
2018-03-22T03:23:23.166Z,1.5
2018-03-22T03:24:33.313Z,1.47
2018-03-22T03:25:43.257Z,1.54
2018-03-22T03:26:53.372Z,1.5
2018-03-22T03:28:02.920Z,1.5
2018-03-22T03:29:13.011Z,1.43
2018-03-22T03:30:23.288Z,1.43
2018-03-22T03:31:33.691Z,1.43
2018-03-22T03:32:43.886Z,1.4
2018-03-22T03:33:53.759Z,1.47
2018-03-22T03:35:03.906Z,1.35
2018-03-22T03:36:13.780Z,1.33
2018-03-22T03:37:23.648Z,1.33
2018-03-22T03:38:33.779Z,1.32
2018-03-22T03:39:43.279Z,1.35
2018-03-22T03:40:53.161Z,1.32
2018-03-22T03:42:03.042Z,1.28
2018-03-22T03:43:12.942Z,1.21
2018-03-22T03:44:22.574Z,1.25
2018-03-22T03:45:32.667Z,1.28
2018-03-22T03:46:42.750Z,1.35
2018-03-22T03:47:52.705Z,1.36
2018-03-22T03:49:02.568Z,1.33
2018-03-22T03:50:12.470Z,1.33
2018-03-22T03:51:22.693Z,1.4
2018-03-22T03:52:32.828Z,1.48
2018-03-22T03:53:42.779Z,1.43
2018-03-22T03:54:52.908Z,1.48
2018-03-22T03:56:02.787Z,1.43
2018-03-22T03:57:12.555Z,1.51
2018-03-22T03:58:22.423Z,1.55
2018-03-22T03:59:32.574Z,1.47
2018-03-22T04:00:42.173Z,1.5
2018-03-22T04:01:52.320Z,1.48
2018-03-22T04:03:02.467Z,1.47
2018-03-22T04:04:12.594Z,1.5
2018-03-22T04:05:22.737Z,1.43
2018-03-22T04:06:32.844Z,1.4
2018-03-22T04:07:42.634Z,1.5
2018-03-22T04:08:52.503Z,1.43
2018-03-22T04:10:02.753Z,1.47
2018-03-22T04:11:12.877Z,1.46
2018-03-22T04:12:23.040Z,1.39
2018-03-22T04:13:32.933Z,1.46
2018-03-22T04:14:43.115Z,1.43
2018-03-22T04:15:53.255Z,1.46
2018-03-22T04:17:03.105Z,1.4
2018-03-22T04:18:12.950Z,1.42
2018-03-22T04:19:23.118Z,1.39
2018-03-22T04:20:33.029Z,1.5
2018-03-22T04:21:42.934Z,1.47
2018-03-22T04:22:52.874Z,1.47
2018-03-22T04:24:02.731Z,1.55
2018-03-22T04:25:12.843Z,1.53
2018-03-22T04:26:22.682Z,1.53
2018-03-22T04:27:32.692Z,1.47
2018-03-22T04:28:42.970Z,1.58
2018-03-22T04:29:52.832Z,1.48
2018-03-22T04:31:02.080Z,1.43
2018-03-22T04:32:12.187Z,1.48
2018-03-22T04:33:22.303Z,1.51
2018-03-22T04:34:32.149Z,1.53
2018-03-22T04:35:41.937Z,1.43
2018-03-22T04:36:52.138Z,1.46
2018-03-22T04:38:02.282Z,1.4
2018-03-22T04:39:12.424Z,1.42
2018-03-22T04:40:22.585Z,1.51
2018-03-22T04:41:32.466Z,1.55
2018-03-22T04:42:42.305Z,1.5
2018-03-22T04:43:52.417Z,1.43
2018-03-22T04:45:02.554Z,1.64
2018-03-22T04:46:12.353Z,1.5
2018-03-22T04:47:22.476Z,1.55
2018-03-22T04:48:32.377Z,1.55
2018-03-22T04:49:42.173Z,1.54
2018-03-22T04:50:52.311Z,1.53
2018-03-22T04:52:02.248Z,1.55
2018-03-22T04:53:12.115Z,1.58
2018-03-22T04:54:22.335Z,1.55
2018-03-22T04:55:32.541Z,1.57
2018-03-22T04:56:42.769Z,1.54
2018-03-22T04:57:52.883Z,1.51
2018-03-22T04:59:03.009Z,1.62
2018-03-22T05:00:13.181Z,1.58
2018-03-22T05:01:22.791Z,1.64
2018-03-22T05:02:32.930Z,1.73
2018-03-22T05:03:43.038Z,1.7
2018-03-22T05:04:53.167Z,1.72
2018-03-22T05:06:03.299Z,1.72
2018-03-22T05:07:13.508Z,1.72
2018-03-22T05:08:23.765Z,1.7
2018-03-22T05:09:33.943Z,1.54
2018-03-22T05:10:44.105Z,1.5
2018-03-22T05:11:54.282Z,1.51
2018-03-22T05:13:04.465Z,1.38
2018-03-22T05:14:14.721Z,1.2
2018-03-22T05:15:24.714Z,1.25
2018-03-22T05:16:34.824Z,1.25
2018-03-22T05:17:44.966Z,1.18
2018-03-22T05:18:55.121Z,1.14
2018-03-22T05:20:05.233Z,1.03
2018-03-22T05:21:15.343Z,1.1
2018-03-22T05:22:25.453Z,1
2018-03-22T05:23:35.575Z,0.86
2018-03-22T05:24:45.782Z,0.93
2018-03-22T05:25:55.693Z,0.84
2018-03-22T05:27:05.869Z,0.9
2018-03-22T05:28:16.004Z,0.88
2018-03-22T05:29:25.863Z,0.9
2018-03-22T05:30:35.986Z,0.86
2018-03-22T05:31:46.132Z,0.9
2018-03-22T05:32:56.384Z,0.81
2018-03-22T05:34:06.548Z,0.84
2018-03-22T05:35:16.406Z,0.64
2018-03-22T05:36:26.593Z,0.71
2018-03-22T05:37:36.746Z,0.74
2018-03-22T05:38:46.892Z,0.68
2018-03-22T05:39:57.167Z,0.58
2018-03-22T05:41:07.067Z,0.6
2018-03-22T05:42:16.988Z,0.6
2018-03-22T05:43:27.108Z,0.56
2018-03-22T05:44:36.720Z,0.6
2018-03-22T05:45:46.587Z,0.45
2018-03-22T05:46:57.690Z,0.38
2018-03-22T05:48:07.625Z,0.46
2018-03-22T05:49:17.752Z,0.38
2018-03-22T05:50:27.875Z,0.42
2018-03-22T05:51:38.005Z,0.3
2018-03-22T05:52:47.848Z,0.31
2018-03-22T05:53:57.991Z,0.38
2018-03-22T05:55:08.153Z,0.2
2018-03-22T05:56:18.289Z,0.16
2018-03-22T05:57:28.228Z,0.2
2018-03-22T05:58:39.069Z,0.3
2018-03-22T05:59:48.588Z,0.31
2018-03-22T06:00:58.724Z,0.33
2018-03-22T06:02:08.886Z,0.31
2018-03-22T06:03:19.029Z,0.31
2018-03-22T06:04:29.144Z,0.27
2018-03-22T06:05:38.668Z,0.38
2018-03-22T06:06:48.817Z,0.33
2018-03-22T06:07:58.687Z,0.22
2018-03-22T06:09:08.897Z,0.21
2018-03-22T06:10:19.086Z,0.17
2018-03-22T06:11:28.741Z,0.24
2018-03-22T06:12:38.745Z,0.2
2018-03-22T06:13:48.941Z,0.14
2018-03-22T06:14:58.705Z,0.14
2018-03-22T06:16:08.691Z,0.16
2018-03-22T06:17:18.894Z,0.2
2018-03-22T06:18:28.503Z,0.03
2018-03-22T06:19:38.600Z,0.16
2018-03-22T06:20:48.710Z,0.17
2018-03-22T06:21:58.459Z,0.11
2018-03-22T06:23:08.504Z,0.09
2018-03-22T06:24:18.414Z,0.06
2018-03-22T06:25:28.028Z,0.03
2018-03-22T06:26:37.891Z,0.01
2018-03-22T06:27:47.380Z,0.11
2018-03-22T06:28:57.026Z,0.06
2018-03-22T06:30:06.625Z,0.08
2018-03-22T06:31:16.743Z,0.14
2018-03-22T06:32:26.679Z,0.09
2018-03-22T06:33:36.194Z,0.12
2018-03-22T06:34:45.431Z,0.05
2018-03-22T06:35:54.730Z,0.09
2018-03-22T06:37:04.225Z,0.09
2018-03-22T06:38:14.376Z,0.17
2018-03-22T06:39:24.328Z,0.24
2018-03-22T06:40:34.588Z,0.2
2018-03-22T06:41:44.187Z,0.2
2018-03-22T06:42:54.082Z,0.17
2018-03-22T06:44:03.935Z,0.17
2018-03-22T06:45:13.557Z,0.25
2018-03-22T06:46:23.444Z,0.2
2018-03-22T06:47:33.579Z,0.16
2018-03-22T06:48:43.342Z,0.2
2018-03-22T06:49:53.231Z,0.22
2018-03-22T06:51:02.733Z,0.2
2018-03-22T06:52:12.248Z,0.24
2018-03-22T06:53:22.274Z,0.27
2018-03-22T06:54:32.410Z,0.21
2018-03-22T06:55:42.281Z,0.21
2018-03-22T06:56:52.021Z,0.22
2018-03-22T06:58:01.668Z,0.16
2018-03-22T06:59:11.535Z,0.17
2018-03-22T07:00:21.682Z,0.14
2018-03-22T07:01:31.851Z,0.12
2018-03-22T07:02:41.695Z,0.17
2018-03-22T07:03:51.552Z,0.24
2018-03-22T07:05:01.726Z,0.3
2018-03-22T07:06:11.874Z,0.33
2018-03-22T07:07:21.721Z,0.31
2018-03-22T07:08:31.337Z,0.28
2018-03-22T07:09:41.471Z,0.27
2018-03-22T07:10:51.680Z,0.25
2018-03-22T07:12:01.832Z,0.24
2018-03-22T07:13:11.719Z,0.2
2018-03-22T07:14:21.832Z,0.3
2018-03-22T07:15:31.695Z,0.3
2018-03-22T07:16:41.805Z,0.43
2018-03-22T07:17:51.941Z,0.28
2018-03-22T07:19:01.767Z,0.46
2018-03-22T07:20:11.526Z,0.33
2018-03-22T07:21:20.978Z,0.3
2018-03-22T07:22:31.364Z,0.3
2018-03-22T07:23:41.248Z,0.31
2018-03-22T07:24:51.405Z,0.35
2018-03-22T07:26:01.682Z,0.4
2018-03-22T07:27:11.567Z,0.35
2018-03-22T07:28:21.475Z,0.3
2018-03-22T07:29:31.592Z,0.36
2018-03-22T07:30:41.738Z,0.42
2018-03-22T07:31:51.735Z,0.38
2018-03-22T07:33:01.601Z,0.39
2018-03-22T07:34:11.719Z,0.39
2018-03-22T07:35:21.578Z,0.42
2018-03-22T07:36:31.487Z,0.31
2018-03-22T07:37:41.361Z,0.43
2018-03-22T07:38:51.457Z,0.49
2018-03-22T07:40:01.776Z,0.53
2018-03-22T07:41:11.896Z,0.56
2018-03-22T07:42:22.139Z,0.6
2018-03-22T07:43:32.055Z,0.61
2018-03-22T07:44:42.188Z,0.54
2018-03-22T07:45:51.882Z,0.5
2018-03-22T07:47:01.752Z,0.56
2018-03-22T07:48:11.622Z,0.53
2018-03-22T07:49:21.586Z,0.54
2018-03-22T07:50:30.960Z,0.57
2018-03-22T07:51:41.122Z,0.56
2018-03-22T07:52:51.272Z,0.56
2018-03-22T07:54:01.147Z,0.6
2018-03-22T07:55:10.997Z,0.56
2018-03-22T07:56:21.564Z,0.53
2018-03-22T07:57:31.728Z,0.66
2018-03-22T07:58:41.600Z,0.71
2018-03-22T07:59:51.476Z,0.74
2018-03-22T08:01:01.593Z,0.67
2018-03-22T08:02:11.453Z,0.64
2018-03-22T08:03:21.592Z,0.61
2018-03-22T08:04:31.724Z,0.67
2018-03-22T08:05:41.882Z,0.57
2018-03-22T08:06:51.560Z,0.66
2018-03-22T08:08:01.331Z,0.63
2018-03-22T08:09:11.221Z,0.61
2018-03-22T08:10:21.377Z,0.63
2018-03-22T08:11:31.066Z,0.66
2018-03-22T08:12:41.045Z,0.63
2018-03-22T08:13:51.208Z,0.6
2018-03-22T08:15:01.355Z,0.67
2018-03-22T08:16:11.475Z,0.66
2018-03-22T08:17:21.281Z,0.75
2018-03-22T08:18:31.430Z,0.71
2018-03-22T08:19:41.565Z,0.76
2018-03-22T08:20:51.692Z,0.81
2018-03-22T08:22:01.850Z,0.81
2018-03-22T08:23:11.815Z,0.82
2018-03-22T08:24:21.950Z,0.86
2018-03-22T08:25:32.186Z,1.02
2018-03-22T08:26:42.339Z,1.06
2018-03-22T08:27:52.238Z,1
2018-03-22T08:29:02.109Z,1.11
2018-03-22T08:30:12.226Z,1.24
2018-03-22T08:31:22.009Z,1.2
2018-03-22T08:32:31.547Z,1.24
2018-03-22T08:33:41.180Z,1.25
2018-03-22T08:34:51.149Z,1.32
2018-03-22T08:36:00.750Z,1.3
2018-03-22T08:37:11.914Z,1.3
2018-03-22T08:38:21.413Z,1.36
2018-03-22T08:39:31.544Z,1.33
2018-03-22T08:40:41.704Z,1.38
2018-03-22T08:41:51.599Z,1.4
2018-03-22T08:43:01.743Z,1.46
2018-03-22T08:44:11.123Z,1.4
2018-03-22T08:45:21.255Z,1.5
2018-03-22T08:46:31.260Z,1.58
2018-03-22T08:47:41.143Z,1.51
2018-03-22T08:48:51.286Z,1.58
2018-03-22T08:50:00.527Z,1.6
2018-03-22T08:51:10.688Z,1.73
2018-03-22T08:52:20.829Z,1.76
2018-03-22T08:53:31.140Z,1.79
2018-03-22T08:54:41.300Z,1.72
2018-03-22T08:55:51.607Z,1.74
2018-03-22T08:57:01.794Z,1.82
2018-03-22T08:58:11.904Z,1.82
2018-03-22T08:59:21.679Z,1.88
2018-03-22T09:00:31.959Z,1.88
2018-03-22T09:01:41.829Z,1.87
2018-03-22T09:02:51.470Z,1.91
2018-03-22T09:04:01.697Z,2.03
2018-03-22T09:05:11.587Z,2.05
2018-03-22T09:06:21.761Z,1.98
2018-03-22T09:07:31.640Z,2.1
2018-03-22T09:08:41.763Z,2.06
2018-03-22T09:09:52.058Z,2.01
2018-03-22T09:11:02.206Z,2.12
2018-03-22T09:12:12.056Z,2.16
2018-03-22T09:13:22.845Z,2.1
2018-03-22T09:14:34.872Z,2.23
2018-03-22T09:15:47.348Z,2.26
2018-03-22T09:16:58.569Z,2.31
2018-03-22T09:18:09.394Z,2.37
2018-03-22T09:19:20.900Z,2.33
2018-03-22T09:20:31.840Z,2.39
2018-03-22T09:21:43.356Z,2.3
2018-03-22T09:22:54.747Z,2.27
2018-03-22T09:24:05.920Z,2.21
2018-03-22T09:25:17.326Z,2.21
2018-03-22T09:26:29.126Z,2.26
2018-03-22T09:27:40.504Z,2.3
2018-03-22T09:28:52.404Z,2.28
2018-03-22T09:30:03.476Z,2.39
2018-03-22T09:31:14.590Z,2.26
2018-03-22T09:32:25.474Z,2.37
2018-03-22T09:33:36.117Z,2.37
2018-03-22T09:34:46.624Z,2.39
2018-03-22T09:35:56.836Z,2.41
2018-03-22T09:37:06.750Z,2.48
2018-03-22T09:38:16.906Z,2.31
2018-03-22T09:39:27.058Z,2.26
2018-03-22T09:40:36.816Z,2.34
2018-03-22T09:41:46.957Z,2.42
2018-03-22T09:42:56.960Z,2.37
2018-03-22T09:44:39.089Z,2.41
2018-03-22T09:45:48.866Z,2.44
2018-03-22T09:46:58.619Z,2.44
2018-03-22T09:48:08.781Z,2.42
2018-03-22T09:49:18.780Z,2.44
2018-03-22T09:50:29.024Z,2.46
2018-03-22T09:51:38.572Z,2.41
2018-03-22T09:52:48.727Z,2.44
2018-03-22T09:53:58.590Z,2.36
2018-03-22T09:55:08.387Z,2.36
2018-03-22T09:56:18.582Z,2.26
2018-03-22T09:57:41.272Z,2.26
2018-03-22T09:58:51.488Z,2.27
2018-03-22T10:00:01.600Z,2.19
2018-03-22T10:01:11.800Z,2.19
2018-03-22T10:02:21.967Z,2.15
2018-03-22T10:03:32.322Z,2.21
2018-03-22T10:04:42.482Z,2.16
2018-03-22T10:05:52.741Z,2.12
2018-03-22T10:07:02.668Z,2.13
2018-03-22T10:08:12.529Z,1.97
2018-03-22T10:09:22.467Z,1.97
2018-03-22T10:10:32.103Z,1.84
2018-03-22T10:11:44.327Z,1.77
2018-03-22T10:12:54.483Z,1.85
2018-03-22T10:14:04.358Z,1.8
2018-03-22T10:15:14.543Z,1.74
2018-03-22T10:16:24.926Z,1.79
2018-03-22T10:17:35.126Z,1.76
2018-03-22T10:18:45.253Z,1.76
2018-03-22T10:19:55.484Z,1.79
2018-03-22T10:21:06.707Z,1.74
2018-03-22T10:22:16.842Z,1.74
2018-03-22T10:23:27.012Z,1.73
2018-03-22T10:24:37.284Z,1.76
2018-03-22T10:25:47.519Z,1.67
2018-03-22T10:26:57.708Z,1.72
2018-03-22T10:28:07.934Z,1.74
2018-03-22T10:29:18.170Z,1.8
2018-03-22T10:30:28.343Z,1.82
2018-03-22T10:31:38.665Z,1.88
2018-03-22T10:32:48.890Z,1.95
2018-03-22T10:33:59.142Z,2.03
2018-03-22T10:35:08.653Z,2.09
2018-03-22T10:36:18.582Z,2.1
2018-03-22T10:37:28.799Z,2.13
2018-03-22T10:38:38.712Z,2.19
2018-03-22T10:39:48.574Z,2.15
2018-03-22T10:40:58.761Z,2.23
2018-03-22T10:42:08.895Z,2.28
2018-03-22T10:43:19.018Z,2.24
2018-03-22T10:44:29.224Z,2.41
2018-03-22T10:45:39.346Z,2.42
2018-03-22T10:46:48.848Z,2.41
2018-03-22T10:47:58.526Z,2.44
2018-03-22T10:49:07.795Z,2.39
2018-03-22T10:50:17.418Z,2.48
2018-03-22T10:51:26.943Z,2.39
2018-03-22T10:52:37.083Z,2.44
2018-03-22T10:53:47.048Z,2.49
2018-03-22T10:54:57.222Z,2.51
2018-03-22T10:56:07.366Z,2.49
2018-03-22T10:57:17.599Z,2.53
2018-03-22T10:58:27.861Z,2.55
2018-03-22T10:59:37.744Z,2.56
2018-03-22T11:00:47.741Z,2.59
2018-03-22T11:01:57.541Z,2.56
2018-03-22T11:03:07.171Z,2.56
2018-03-22T11:04:17.086Z,2.6
2018-03-22T11:05:27.256Z,2.64
2018-03-22T11:06:37.196Z,2.62
2018-03-22T11:07:47.328Z,2.62
2018-03-22T11:08:57.442Z,2.63
2018-03-22T11:10:07.092Z,2.66
2018-03-22T11:11:17.357Z,2.66
2018-03-22T11:12:27.212Z,2.77
2018-03-22T11:13:37.343Z,2.77
2018-03-22T11:14:47.067Z,2.81
2018-03-22T11:15:57.283Z,2.88
2018-03-22T11:17:07.423Z,2.84
2018-03-22T11:18:17.320Z,2.87
2018-03-22T11:19:27.504Z,2.87
2018-03-22T11:20:37.347Z,2.82
2018-03-22T11:21:47.476Z,2.91
2018-03-22T11:22:57.392Z,2.88
2018-03-22T11:24:07.299Z,2.88
2018-03-22T11:25:17.496Z,2.81
2018-03-22T11:26:27.125Z,2.88
2018-03-22T11:27:36.912Z,2.81
2018-03-22T11:28:46.541Z,2.88
2018-03-22T11:29:56.697Z,2.84
2018-03-22T11:31:06.916Z,2.85
2018-03-22T11:32:17.048Z,2.81
2018-03-22T11:33:27.159Z,2.92
2018-03-22T11:34:37.173Z,2.96
2018-03-22T11:35:47.361Z,2.99
2018-03-22T11:36:57.505Z,2.97
2018-03-22T11:38:07.686Z,3.06
2018-03-22T11:39:17.803Z,3.16
2018-03-22T11:40:27.948Z,3.28
2018-03-22T11:41:37.923Z,3.28
2018-03-22T11:42:48.057Z,3.52
2018-03-22T11:43:58.212Z,3.65
2018-03-22T11:45:08.357Z,3.69
2018-03-22T11:46:18.582Z,3.64
2018-03-22T11:47:28.763Z,3.69
2018-03-22T11:48:38.929Z,3.59
2018-03-22T11:49:48.874Z,3.54
2018-03-22T11:50:59.099Z,3.64
2018-03-22T11:52:09.310Z,3.54
2018-03-22T11:53:19.484Z,3.58
2018-03-22T11:54:29.753Z,3.54
2018-03-22T11:55:40.014Z,3.47
2018-03-22T11:56:49.791Z,3.39
2018-03-22T11:57:59.913Z,3.4
2018-03-22T11:59:09.982Z,3.44
2018-03-22T12:00:20.368Z,3.31
2018-03-22T12:01:30.522Z,3.29
2018-03-22T12:02:40.787Z,3.25
2018-03-22T12:03:50.908Z,3.25
2018-03-22T12:05:01.180Z,3.18
2018-03-22T12:06:11.391Z,3.21
2018-03-22T12:07:21.840Z,3.22
2018-03-22T12:08:32.040Z,3.18
2018-03-22T12:09:42.186Z,3.16
2018-03-22T12:10:52.329Z,3.15
2018-03-22T12:12:02.523Z,3.13
2018-03-22T12:13:12.660Z,3.19
2018-03-22T12:14:22.796Z,3.15
2018-03-22T12:15:32.945Z,3.21
2018-03-22T12:16:42.903Z,3.22
2018-03-22T12:17:53.206Z,3.21
2018-03-22T12:19:03.452Z,3.31
2018-03-22T12:20:13.585Z,3.25
2018-03-22T12:21:23.442Z,3.31
2018-03-22T12:22:33.586Z,3.31
2018-03-22T12:23:43.733Z,3.42
2018-03-22T12:24:54.011Z,3.37
2018-03-22T12:26:04.257Z,3.43
2018-03-22T12:27:13.877Z,3.34
2018-03-22T12:28:23.844Z,3.55
2018-03-22T12:29:33.887Z,3.52
2018-03-22T12:30:44.139Z,3.57
2018-03-22T12:31:54.284Z,3.46
2018-03-22T12:33:04.473Z,3.44
2018-03-22T12:34:14.628Z,3.58
2018-03-22T12:35:24.532Z,3.59
2018-03-22T12:36:34.682Z,3.58
2018-03-22T12:37:44.553Z,3.55
2018-03-22T12:38:54.697Z,3.5
2018-03-22T12:40:04.855Z,3.52
2018-03-22T12:41:14.803Z,3.57
2018-03-22T12:42:25.065Z,3.73
2018-03-22T12:43:35.343Z,3.75
2018-03-22T12:44:46.045Z,3.69
2018-03-22T12:45:56.122Z,3.69
2018-03-22T12:47:06.060Z,3.69
2018-03-22T12:48:17.754Z,3.75
2018-03-22T12:49:28.544Z,3.67
2018-03-22T12:50:39.776Z,3.77
2018-03-22T12:51:51.148Z,3.86
2018-03-22T12:53:02.200Z,3.68
2018-03-22T12:54:13.331Z,3.69
2018-03-22T12:55:24.344Z,3.8
2018-03-22T12:56:34.546Z,3.76
2018-03-22T12:57:44.238Z,3.73
2018-03-22T12:58:55.085Z,3.76
2018-03-22T13:00:05.279Z,3.75
2018-03-22T13:01:15.483Z,3.82
2018-03-22T13:02:25.614Z,3.79
2018-03-22T13:03:35.788Z,3.77
2018-03-22T13:04:45.676Z,3.73
2018-03-22T13:05:55.556Z,3.72
2018-03-22T13:07:05.592Z,3.65
2018-03-22T13:08:15.261Z,3.76
2018-03-22T13:09:25.485Z,3.76
2018-03-22T13:10:35.378Z,3.69
2018-03-22T13:11:45.380Z,3.68
2018-03-22T13:12:55.617Z,3.61
2018-03-22T13:14:05.592Z,3.69
2018-03-22T13:15:15.747Z,3.72
2018-03-22T13:16:25.885Z,3.75
2018-03-22T13:17:35.769Z,3.68
2018-03-22T13:18:45.656Z,3.69
2018-03-22T13:19:55.920Z,3.77
2018-03-22T13:21:06.196Z,3.72
2018-03-22T13:22:16.079Z,3.62
2018-03-22T13:23:26.229Z,3.69
2018-03-22T13:24:36.379Z,3.65
2018-03-22T13:25:46.511Z,3.65
2018-03-22T13:26:56.771Z,3.64
2018-03-22T13:28:06.946Z,3.67
2018-03-22T13:29:16.824Z,3.67
2018-03-22T13:30:26.756Z,3.68
2018-03-22T13:31:36.886Z,3.65
2018-03-22T13:32:46.865Z,3.68
2018-03-22T13:33:56.738Z,3.72
2018-03-22T13:35:06.496Z,3.68
2018-03-22T13:36:16.574Z,3.69
2018-03-22T13:37:26.530Z,3.69
2018-03-22T13:38:36.659Z,3.76
2018-03-22T13:39:46.558Z,3.57
2018-03-22T13:40:56.514Z,3.59
2018-03-22T13:42:06.427Z,3.67
2018-03-22T13:43:16.344Z,3.61
2018-03-22T13:44:26.740Z,3.67
2018-03-22T13:45:36.965Z,3.72
2018-03-22T13:46:47.139Z,3.79
2018-03-22T13:47:57.364Z,3.67
2018-03-22T13:49:07.274Z,3.68
2018-03-22T13:50:17.211Z,3.77
2018-03-22T13:51:27.096Z,3.67
2018-03-22T13:52:36.961Z,3.73
2018-03-22T13:53:46.931Z,3.67
2018-03-22T13:54:56.919Z,3.76
2018-03-22T13:56:06.322Z,3.73
2018-03-22T13:57:16.264Z,3.65
2018-03-22T13:58:26.771Z,3.65
2018-03-22T13:59:38.050Z,3.82
2018-03-22T14:00:49.185Z,3.73
2018-03-22T14:02:00.313Z,3.72
2018-03-22T14:03:11.530Z,3.75
2018-03-22T14:04:23.142Z,3.72
2018-03-22T14:05:34.728Z,3.68
2018-03-22T14:06:45.902Z,3.72
2018-03-22T14:07:57.030Z,3.75
2018-03-22T14:09:08.039Z,3.64
2018-03-22T14:10:19.691Z,3.75
2018-03-22T14:11:30.830Z,3.68
2018-03-22T14:12:41.934Z,3.69
2018-03-22T14:13:53.524Z,3.75
2018-03-22T14:15:04.985Z,3.79
2018-03-22T14:16:15.682Z,3.72
2018-03-22T14:17:25.914Z,3.73
2018-03-22T14:18:36.080Z,3.79
2018-03-22T14:19:46.216Z,3.85
2018-03-22T14:20:56.411Z,3.9
2018-03-22T14:22:06.615Z,3.8
2018-03-22T14:23:16.497Z,3.83
2018-03-22T14:24:26.911Z,3.91
2018-03-22T14:25:37.166Z,4
2018-03-22T14:26:47.051Z,4.01
2018-03-22T14:27:57.221Z,4.03
2018-03-22T14:29:07.410Z,4.01
2018-03-22T14:30:17.302Z,4.11
2018-03-22T14:31:27.421Z,4.12
2018-03-22T14:32:37.571Z,4.09
2018-03-22T14:33:47.769Z,4.23
2018-03-22T14:34:57.470Z,4.13
2018-03-22T14:36:07.645Z,4.23
2018-03-22T14:37:17.782Z,4.15
2018-03-22T14:38:29.128Z,4.23
2018-03-22T14:39:39.325Z,4.2
2018-03-22T14:40:49.455Z,4.19
2018-03-22T14:41:59.346Z,4.27
2018-03-22T14:43:09.575Z,4.23
2018-03-22T14:44:19.787Z,4.22
2018-03-22T14:45:29.945Z,4.12
2018-03-22T14:46:40.152Z,4.08
2018-03-22T14:47:50.365Z,4.23
2018-03-22T14:49:00.247Z,4.13
2018-03-22T14:50:10.430Z,4.2
2018-03-22T14:51:20.001Z,4.16
2018-03-22T14:52:30.379Z,4.16
2018-03-22T14:53:40.606Z,4.12
2018-03-22T14:54:50.508Z,4.11
2018-03-22T14:56:00.654Z,4.16
2018-03-22T14:57:10.800Z,4.25
2018-03-22T14:58:20.951Z,4.2
2018-03-22T14:59:30.581Z,4.13
2018-03-22T15:00:40.916Z,4.15
2018-03-22T15:01:51.234Z,4.08
2018-03-22T15:03:01.415Z,4.22
2018-03-22T15:04:11.581Z,4.23
2018-03-22T15:05:21.481Z,4.19
2018-03-22T15:06:31.634Z,4.19
2018-03-22T15:07:41.801Z,4.18
2018-03-22T15:08:51.958Z,4.18
2018-03-22T15:10:02.230Z,4.18
2018-03-22T15:11:12.383Z,4.09
2018-03-22T15:12:22.294Z,4.23
2018-03-22T15:13:32.398Z,4.16
2018-03-22T15:14:42.576Z,4.18
2018-03-22T15:15:52.496Z,4.05
2018-03-22T15:17:02.643Z,4.12
2018-03-22T15:18:12.824Z,4.08
2018-03-22T15:19:22.704Z,4.2
2018-03-22T15:20:32.764Z,4.18
2018-03-22T15:21:42.923Z,4.18
2018-03-22T15:22:52.828Z,4.23
2018-03-22T15:24:02.986Z,4.15
2018-03-22T15:25:13.191Z,4.11
2018-03-22T15:26:23.382Z,4.12
2018-03-22T15:27:33.596Z,4.16
2018-03-22T15:28:43.749Z,4.12
2018-03-22T15:29:54.631Z,4.23
2018-03-22T15:31:05.490Z,4.18
2018-03-22T15:32:15.421Z,4.13
2018-03-22T15:33:25.306Z,4.2
2018-03-22T15:34:35.197Z,4.28
2018-03-22T15:35:45.081Z,4.23
2018-03-22T15:36:54.856Z,4.2
2018-03-22T15:38:04.787Z,4.23